createdAt,value
2022-11-28T00:00:03.115Z,1025.5
2022-11-28T00:16:00.572Z,1025.16
2022-11-28T00:31:02.616Z,1025.1
2022-11-28T00:45:59.855Z,1025.1
2022-11-28T01:00:01.889Z,1025.03
2022-11-28T01:15:59.421Z,1025.03
2022-11-28T01:31:01.596Z,1025.03
2022-11-28T01:46:03.880Z,1024.83
2022-11-28T02:00:00.839Z,1024.59
2022-11-28T02:16:03.347Z,1024.18
2022-11-28T02:31:00.429Z,1024.01
2022-11-28T02:46:02.692Z,1023.81
2022-11-28T02:59:59.703Z,1023.78
2022-11-28T03:16:02.122Z,1023.78
2022-11-28T03:30:59.392Z,1023.67
2022-11-28T03:46:01.659Z,1023.57
2022-11-28T04:00:03.632Z,1023.4
2022-11-28T04:16:01.072Z,1023.3
2022-11-28T04:31:03.499Z,1023.3
2022-11-28T04:46:00.643Z,1023.2
2022-11-28T05:00:02.692Z,1023.23
2022-11-28T05:16:00.836Z,1023.13
2022-11-28T05:31:02.455Z,1023.07
2022-11-28T05:45:59.874Z,1022.96
2022-11-28T06:00:01.913Z,1022.93
2022-11-28T06:16:04.264Z,1022.83
2022-11-28T06:31:01.547Z,1022.79
2022-11-28T06:46:03.908Z,1022.9
2022-11-28T07:00:00.985Z,1022.9
2022-11-28T07:16:03.468Z,1022.9
2022-11-28T07:31:00.666Z,1022.83
2022-11-28T07:46:03.674Z,1022.56
2022-11-28T08:00:00.008Z,1022.46
2022-11-28T08:16:02.235Z,1022.42
2022-11-28T08:30:59.775Z,1022.42
2022-11-28T08:46:01.891Z,1022.35
2022-11-28T09:00:04.219Z,1022.39
2022-11-28T09:16:01.375Z,1022.29
2022-11-28T09:31:03.680Z,1022.08
2022-11-28T09:46:00.924Z,1021.81
2022-11-28T10:00:00.994Z,1021.61
2022-11-28T10:16:03.441Z,1021.44
2022-11-28T10:31:00.904Z,1021.14
2022-11-28T10:46:05.542Z,1020.97
2022-11-28T11:00:00.283Z,1020.86
2022-11-28T11:16:02.781Z,1020.76
2022-11-28T11:31:00.136Z,1020.46
2022-11-28T11:46:02.441Z,1020.36
2022-11-28T11:59:59.436Z,1020.19
2022-11-28T12:16:02.044Z,1019.98
2022-11-28T12:31:04.359Z,1019.81
2022-11-28T12:46:01.589Z,1019.71
2022-11-28T13:00:08.488Z,1019.58
2022-11-28T13:16:01.048Z,1019.54
2022-11-28T13:31:03.201Z,1019.48
2022-11-28T13:46:00.483Z,1019.44
2022-11-28T14:00:02.592Z,1019.34
2022-11-28T14:15:59.898Z,1019.31
2022-11-28T14:31:02.311Z,1019.24
2022-11-28T14:45:59.539Z,1019.27
2022-11-28T15:00:01.612Z,1019.37
2022-11-28T15:16:04.004Z,1019.24
2022-11-28T15:31:01.176Z,1019.24
2022-11-28T15:46:03.423Z,1019.24
2022-11-28T16:00:00.483Z,1019.2
2022-11-28T16:16:02.947Z,1019.2
2022-11-28T16:31:00.218Z,1019.31
2022-11-28T16:46:02.531Z,1019.44
2022-11-28T16:59:59.719Z,1019.37
2022-11-28T17:16:02.187Z,1019.44
2022-11-28T17:30:59.506Z,1019.51
2022-11-28T17:46:01.845Z,1019.51
2022-11-28T18:00:03.970Z,1019.51
2022-11-28T18:16:01.378Z,1019.54
2022-11-28T18:31:03.637Z,1019.54
2022-11-28T18:46:00.905Z,1019.41
2022-11-28T19:00:02.833Z,1019.48
2022-11-28T19:16:00.309Z,1019.51
2022-11-28T19:31:02.693Z,1019.61
2022-11-28T19:46:00.040Z,1019.61
2022-11-28T20:00:02.013Z,1019.71
2022-11-28T20:16:00.779Z,1019.71
2022-11-28T20:31:01.941Z,1019.78
2022-11-28T20:46:22.533Z,1019.78
2022-11-28T21:00:01.122Z,1019.88
2022-11-28T21:16:03.708Z,1019.75
2022-11-28T21:31:00.779Z,1019.65
2022-11-28T21:46:03.084Z,1019.58
2022-11-28T22:00:00.204Z,1019.58
2022-11-28T22:16:02.608Z,1019.61
2022-11-28T22:30:59.822Z,1019.65
2022-11-28T22:46:02.161Z,1019.61
2022-11-28T23:00:04.162Z,1019.44
2022-11-28T23:16:01.767Z,1019.34
2022-11-28T23:31:03.917Z,1019.27
2022-11-28T23:46:01.270Z,1019.2
